AirNav   Pilot Hours Calculator
 
 1844 users online  

29KS McMaster Gliderport
Wichita, Kansas, USA

GOING TO WICHITA?


FAA INFORMATION EFFECTIVE 11 AUGUST 2022

Location

FAA Identifier: 29KS
Lat/Long: 37-45-40.6410N 097-10-38.4299W
37-45.677350N 097-10.640498W
37.7612892,-97.1773416
(estimated)
Elevation: 1403 ft. / 428 m (estimated)
From city: 5 miles NE of WICHITA, KS
Time zone: UTC -5 (UTC -6 during Standard Time)
Zip code: 67228

Gliderport Operations

Gliderport use: Private use. Permission required prior to landing
Activation date: 05/2017
Control tower: no
ARTCC: KANSAS CITY CENTER
FSS: WICHITA FLIGHT SERVICE STATION
Attendance: IREG
Wind indicator: yes
Segmented circle: no

Gliderport Communications

WX ASOS at AAO (2.2 nm W): 134.025 (316-636-2541)
WX AWOS-2 at 1K1 (3 nm E): 118.3 (316-530-6004)
WX AWOS-3PT at BEC (4 nm SW): 119.45 (316-515-7116)
WX AWOS-3P at 3AU (7 nm SE): 124.175 (316-733-6696)
WX ASOS at ICT (14 nm SW): PHONE 316-945-8022
WX AWOS-3P at EQA (17 nm E): 120.875 (316-322-8095)
WX AWOS-3PT at EWK (18 nm N): 123.875 (316-283-8789)
  • 123.3

Nearby radio navigation aids

VOR radial/distance  VOR name  Freq  Var
ICTr080/19.3WICHITA VORTAC113.8007E
HUTr108/38.5HUTCHINSON VOR/DME116.8004E

Gliderport Services

Runway Information

Runway 18L/36R

Dimensions: 4600 x 100 ft. / 1402 x 30 m
Surface: turf, in good condition
RUNWAY 18L  RUNWAY 36R
Latitude: 37-45.997000N37-45.239500N
Longitude: 097-10.582167W097-10.573167W
Elevation: 1403.0 ft.1379.0 ft.
Traffic pattern: leftleft

Runway 18R/36L

Dimensions: 2460 x 100 ft. / 750 x 30 m
Surface: turf, in good condition
RUNWAY 18R  RUNWAY 36L
Latitude: 37-45.991833N37-45.586167N
Longitude: 097-10.757000W097-10.757500W
Elevation: 1400.0 ft.1385.0 ft.
Traffic pattern: leftleft

Gliderport Ownership and Management from official FAA records

Ownership: Privately-owned
Owner: JOHN MCMASTER
14311 TIPPERARY CIRCLE
WICHITA, KS 67230
Phone 316-733-0740
Manager: JOHN MCMASTER
14311 TIPPERARY CIRCLE
WICHITA, KS 67230
Phone 316-733-0740

Additional Remarks

FOR CD CTC WICHITA APCH AT 316-350-1520.

Instrument Procedures

There are no published instrument procedures at 29KS.

Some nearby airports with instrument procedures:

KAAO - Colonel James Jabara Airport (2 nm W)
1K1 - Lloyd Stearman Field Airport (3 nm E)
KBEC - Beech Factory Airport (4 nm SW)
3AU - Augusta Municipal Airport (7 nm SE)
KCEA - Cessna Aircraft Field Airport (8 nm SW)
KIAB - Mc Connell Air Force Base (9 nm SW)
KICT - Wichita Dwight D Eisenhower National Airport (14 nm SW)
KEQA - El Dorado/Capt Jack Thomas Memorial Airport (17 nm E)
KEWK - Newton City/County Airport (18 nm N)
 
Loc | Ops | Rwys | IFR | FBO | Links
Com | Nav | Svcs | Stats | Notes
Aerial photo
WARNING: Photo may not be current or correct
Aerial photo of 29KS (McMaster Gliderport)
Taken in the Summer of 2012
looking north.

Do you have a better or more recent aerial photo of McMaster Gliderport that you would like to share? If so, please send us your photo.

 
Airport distance calculator
Flying to McMaster Gliderport? Find the distance to fly.

From to 29KS

Sunrise and sunset
Times for 11-Aug-2022
 Local
(UTC-5)
 Zulu
(UTC)
Morning civil twilight06:1311:13
Sunrise06:4211:42
Sunset20:2601:26
Evening civil twilight20:5401:54

Current date and time
Zulu (UTC)  11-Aug-2022 19:14:58
Local (UTC-5)  11-Aug-2022 14:14:58
 
METAR
KAAO 
2nm W 
111854Z AUTO 10007KT 060V150 10SM CLR 33/11 A3013 RMK AO2 SLP190 T03280111
K1K1 
3nm E 
111855Z AUTO 12008KT 100V180 10SM CLR 31/09 A3014 RMK AO2 T03140091
KBEC 
4nm SW 
111855Z AUTO 08008KT 10SM CLR 32/11 A3013 RMK AO2 T03170105
K3AU 
7nm SE 
111855Z AUTO 06008KT 10SM CLR 32/06 A3014 RMK AO2
KIAB 
10nm SW 
111856Z 06007G14KT 10SM CLR 33/10 A3012 RMK AO2A SLPNO $
KICT 
14nm SW 
111853Z 11006KT 10SM FEW250 32/09 A3012 RMK AO2 SLP185 T03220089
KEWK 
17nm N 
111856Z AUTO 09008G15KT 10SM CLR 32/11 A3016 RMK AO2 SLP196 T03170106
KEQA 
17nm E 
111855Z AUTO 11007KT 10SM CLR 33/11 A3013 RMK AO2
TAF
KIAB 
10nm SW 
111800Z 1118/1224 10010G17KT 9999 SKC QNH3005INS BECMG 1201/1202 13006KT 9999 SKC QNH3007INS BECMG 1215/1216 16010G17KT 9999 SKC QNH3000INS TX34/1121Z TN19/1212Z
KICT 
14nm SW 
111720Z 1118/1218 08006KT P6SM SKC FM120000 10009KT P6SM SKC FM120900 15004KT P6SM SCT250
NOTAMs
Click for the latest NOTAMs
NOTAMs are issued by the DoD/FAA and will open in a separate window not controlled by AirNav.

 

 
 

Would you like to see your business listed on this page?

 If your business provides an interesting product or service to pilots, flight crews, aircraft, or users of the McMaster Gliderport, you should consider listing it here.  To start the listing process, click on the button below
 
Add a business
 

Other Pages about McMaster Gliderport

Update a link
 
Copyright © AirNav, LLC. All rights reserved. Privacy Policy  Contact